createdAt,value
2019-03-26T00:00:10.302Z,100724.28
2019-03-26T00:02:36.709Z,100730.84
2019-03-26T00:05:03.115Z,100730.89
2019-03-26T00:07:28.957Z,100725.70
2019-03-26T00:09:55.019Z,100722.69
2019-03-26T00:12:20.984Z,100726.28
2019-03-26T00:14:46.862Z,100733.73
2019-03-26T00:17:12.840Z,100736.34
2019-03-26T00:19:38.729Z,100732.42
2019-03-26T00:22:04.626Z,100740.71
2019-03-26T00:24:30.622Z,100743.36
2019-03-26T00:26:56.480Z,100753.83
2019-03-26T00:29:22.331Z,100754.31
2019-03-26T00:31:48.399Z,100755.67
2019-03-26T00:34:19.613Z,100760.08
2019-03-26T00:36:42.030Z,100761.02
2019-03-26T00:39:08.077Z,100776.80
2019-03-26T00:41:33.983Z,100785.58
2019-03-26T00:43:59.877Z,100785.64
2019-03-26T00:46:26.019Z,100790.06
2019-03-26T00:48:51.918Z,100794.50
2019-03-26T00:51:17.771Z,100799.80
2019-03-26T00:53:43.838Z,100798.57
2019-03-26T00:56:10.795Z,100801.25
2019-03-26T00:58:36.678Z,100807.41
2019-03-26T01:01:02.804Z,100809.17
2019-03-26T01:03:28.711Z,100813.53
2019-03-26T01:05:54.595Z,100810.07
2019-03-26T01:08:20.640Z,100818.35
2019-03-26T01:10:46.956Z,100827.92
2019-03-26T01:13:12.959Z,100833.17
2019-03-26T01:15:39.055Z,100836.27
2019-03-26T01:18:05.100Z,100845.88
2019-03-26T01:20:30.935Z,100845.02
2019-03-26T01:22:56.956Z,100853.77
2019-03-26T01:25:22.902Z,100862.92
2019-03-26T01:27:48.719Z,100869.50
2019-03-26T01:30:14.846Z,100872.56
2019-03-26T01:32:40.864Z,100873.01
2019-03-26T01:35:06.843Z,100880.86
2019-03-26T01:37:32.921Z,100879.55
2019-03-26T01:39:59.046Z,100887.37
2019-03-26T01:42:25.999Z,100891.33
2019-03-26T01:44:52.041Z,100896.14
2019-03-26T01:47:17.990Z,100903.99
2019-03-26T01:49:43.854Z,100904.87
2019-03-26T01:52:09.970Z,100902.70
2019-03-26T01:54:35.882Z,100907.55
2019-03-26T01:57:01.843Z,100909.31
2019-03-26T01:59:28.167Z,100912.38
2019-03-26T02:01:54.051Z,100922.82
2019-03-26T02:04:20.200Z,100924.16
2019-03-26T02:06:46.382Z,100923.77
2019-03-26T02:09:12.251Z,100937.77
2019-03-26T02:11:38.110Z,100943.88
2019-03-26T02:14:04.243Z,100955.66
2019-03-26T02:16:30.249Z,100957.85
2019-03-26T02:18:56.158Z,100960.48
2019-03-26T02:21:22.199Z,100962.64
2019-03-26T02:23:48.087Z,100966.17
2019-03-26T02:26:14.058Z,100988.40
2019-03-26T02:28:40.103Z,100988.83
2019-03-26T02:31:06.088Z,101005.84
2019-03-26T02:33:31.937Z,100994.06
2019-03-26T02:35:58.164Z,101004.13
2019-03-26T02:38:24.080Z,101012.86
2019-03-26T02:40:49.929Z,101015.47
2019-03-26T02:43:15.922Z,101019.80
2019-03-26T02:45:43.721Z,101021.53
2019-03-26T02:48:09.627Z,101026.75
2019-03-26T02:50:35.586Z,101033.76
2019-03-26T02:53:01.481Z,101037.72
2019-03-26T02:55:27.381Z,101049.52
2019-03-26T02:57:53.495Z,101058.23
2019-03-26T03:00:19.382Z,101058.70
2019-03-26T03:02:45.223Z,101070.89
2019-03-26T03:05:11.374Z,101074.83
2019-03-26T03:07:37.478Z,101078.31
2019-03-26T03:10:04.444Z,101087.05
2019-03-26T03:12:30.485Z,101087.92
2019-03-26T03:14:56.471Z,101096.59
2019-03-26T03:17:22.534Z,101100.51
2019-03-26T03:19:48.659Z,101104.44
2019-03-26T03:22:14.610Z,101108.80
2019-03-26T03:24:40.585Z,101112.27
2019-03-26T03:27:06.658Z,101119.69
2019-03-26T03:29:32.528Z,101121.42
2019-03-26T03:31:58.402Z,101121.87
2019-03-26T03:34:24.740Z,101128.42
2019-03-26T03:36:50.646Z,101135.81
2019-03-26T03:39:16.515Z,101142.81
2019-03-26T03:41:42.616Z,101153.27
2019-03-26T03:44:08.566Z,101157.60
2019-03-26T03:46:34.429Z,101158.91
2019-03-26T03:49:00.590Z,101173.70
2019-03-26T03:51:26.902Z,101186.34
2019-03-26T03:53:53.063Z,101189.41
2019-03-26T03:56:20.312Z,101189.41
2019-03-26T03:58:46.581Z,101195.48
2019-03-26T04:01:12.472Z,101202.02
2019-03-26T04:03:38.430Z,101210.31
2019-03-26T04:06:09.635Z,101224.69
2019-03-26T04:08:32.174Z,101231.23
2019-03-26T04:10:58.348Z,101240.37
2019-03-26T04:13:24.243Z,101243.84
2019-03-26T04:15:50.110Z,101249.95
2019-03-26T04:18:16.140Z,101257.80
2019-03-26T04:20:43.942Z,101276.09
2019-03-26T04:23:09.963Z,101276.09
2019-03-26T04:25:36.013Z,101287.44
2019-03-26T04:28:01.960Z,101297.02
2019-03-26T04:30:29.759Z,101297.02
2019-03-26T04:32:55.873Z,101307.89
2019-03-26T04:35:21.737Z,101308.78
2019-03-26T04:37:47.619Z,101313.58
2019-03-26T04:40:13.659Z,101309.20
2019-03-26T04:42:39.527Z,101320.12
2019-03-26T04:45:05.524Z,101325.77
2019-03-26T04:47:31.562Z,101324.05
2019-03-26T04:49:57.411Z,101334.05
2019-03-26T04:52:23.431Z,101344.50
2019-03-26T04:54:49.461Z,101341.46
2019-03-26T04:57:15.323Z,101348.42
2019-03-26T04:59:41.217Z,101355.42
2019-03-26T05:02:07.191Z,101354.53
2019-03-26T05:04:33.077Z,101366.30
2019-03-26T05:06:58.955Z,101367.19
2019-03-26T05:09:24.920Z,101375.03
2019-03-26T05:11:50.799Z,101381.11
2019-03-26T05:14:16.687Z,101387.65
2019-03-26T05:16:42.693Z,101392.87
2019-03-26T05:19:08.661Z,101395.95
2019-03-26T05:21:34.622Z,101406.83
2019-03-26T05:24:00.728Z,101405.52
2019-03-26T05:26:26.580Z,101414.25
2019-03-26T05:28:52.444Z,101413.79
2019-03-26T05:31:18.455Z,101417.29
2019-03-26T05:33:44.342Z,101425.13
2019-03-26T05:36:10.224Z,101428.63
2019-03-26T05:38:36.187Z,101442.56
2019-03-26T05:41:02.141Z,101446.48
2019-03-26T05:43:28.019Z,101453.48
2019-03-26T05:45:54.005Z,101455.63
2019-03-26T05:48:19.859Z,101454.33
2019-03-26T05:50:45.749Z,101465.24
2019-03-26T05:53:11.791Z,101477.44
2019-03-26T05:55:37.861Z,101473.52
2019-03-26T05:58:03.839Z,101477.02
2019-03-26T06:00:29.798Z,101479.17
2019-03-26T06:02:55.665Z,101488.33
2019-03-26T06:05:21.591Z,101490.94
2019-03-26T06:07:47.748Z,101496.63
2019-03-26T06:10:13.698Z,101504.48
2019-03-26T06:12:39.581Z,101504.48
2019-03-26T06:15:06.958Z,101504.02
2019-03-26T06:17:32.858Z,101507.95
2019-03-26T06:19:58.739Z,101509.25
2019-03-26T06:22:24.801Z,101521.02
2019-03-26T06:24:50.649Z,101524.09
2019-03-26T06:27:16.660Z,101525.84
2019-03-26T06:29:42.604Z,101520.60
2019-03-26T06:32:08.470Z,101520.18
2019-03-26T06:34:34.329Z,101519.30
2019-03-26T06:37:00.544Z,101519.30
2019-03-26T06:39:26.517Z,101515.37
2019-03-26T06:41:52.596Z,101522.38
2019-03-26T06:44:18.636Z,101520.19
2019-03-26T06:46:44.782Z,101525.84
2019-03-26T06:49:10.634Z,101529.77
2019-03-26T06:51:36.672Z,101533.70
2019-03-26T06:54:02.649Z,101526.30
2019-03-26T06:56:28.534Z,101532.39
2019-03-26T06:58:54.609Z,101525.00
2019-03-26T07:01:20.576Z,101539.81
2019-03-26T07:03:46.436Z,101535.05
2019-03-26T07:06:12.430Z,101540.27
2019-03-26T07:08:39.606Z,101540.27
2019-03-26T07:11:05.546Z,101536.77
2019-03-26T07:13:31.700Z,101535.89
2019-03-26T07:15:57.674Z,101541.12
2019-03-26T07:18:23.527Z,101541.12
2019-03-26T07:20:49.546Z,101543.73
2019-03-26T07:23:15.586Z,101545.50
2019-03-26T07:25:41.562Z,101545.92
2019-03-26T07:28:07.769Z,101556.39
2019-03-26T07:30:34.872Z,101553.77
2019-03-26T07:33:00.747Z,101557.70
2019-03-26T07:35:26.873Z,101554.65
2019-03-26T07:37:52.735Z,101550.71
2019-03-26T07:40:18.606Z,101561.61
2019-03-26T07:42:44.583Z,101564.22
2019-03-26T07:45:10.527Z,101568.14
2019-03-26T07:47:36.499Z,101569.91
2019-03-26T07:50:03.819Z,101576.88
2019-03-26T07:52:29.671Z,101575.98
2019-03-26T07:54:57.052Z,101581.25
2019-03-26T07:57:23.099Z,101584.70
2019-03-26T07:59:48.951Z,101578.14
2019-03-26T08:02:14.890Z,101582.95
2019-03-26T08:04:40.978Z,101582.94
2019-03-26T08:07:06.937Z,101589.48
2019-03-26T08:09:32.992Z,101588.59
2019-03-26T08:11:58.991Z,101588.58
2019-03-26T08:14:24.866Z,101595.15
2019-03-26T08:16:51.869Z,101592.52
2019-03-26T08:19:19.433Z,101591.19
2019-03-26T08:21:45.281Z,101596.42
2019-03-26T08:24:11.215Z,101591.58
2019-03-26T08:26:37.160Z,101596.81
2019-03-26T08:29:03.137Z,101595.47
2019-03-26T08:31:28.999Z,101599.82
2019-03-26T08:33:55.051Z,101598.48
2019-03-26T08:36:20.954Z,101603.23
2019-03-26T08:38:46.824Z,101606.70
2019-03-26T08:41:12.996Z,101607.13
2019-03-26T08:43:41.007Z,101612.34
2019-03-26T08:46:06.575Z,101610.13
2019-03-26T08:48:32.627Z,101611.40
2019-03-26T08:50:58.507Z,101607.44
2019-03-26T08:53:24.336Z,101610.91
2019-03-26T08:55:50.334Z,101610.44
2019-03-26T08:58:16.207Z,101618.70
2019-03-26T09:00:42.054Z,101615.62
2019-03-26T09:03:08.020Z,101620.37
2019-03-26T09:05:33.991Z,101624.28
2019-03-26T09:07:59.963Z,101617.66
2019-03-26T09:10:26.101Z,101620.70
2019-03-26T09:12:51.978Z,101625.03
2019-03-26T09:15:17.918Z,101624.98
2019-03-26T09:17:44.646Z,101624.52
2019-03-26T09:20:10.917Z,101613.94
2019-03-26T09:22:36.759Z,101611.23
2019-03-26T09:25:04.062Z,101610.72
2019-03-26T09:27:30.064Z,101615.89
2019-03-26T09:29:55.944Z,101615.36
2019-03-26T09:32:22.037Z,101618.78
2019-03-26T09:34:47.915Z,101619.53
2019-03-26T09:37:13.785Z,101628.23
2019-03-26T09:39:39.857Z,101629.45
2019-03-26T09:42:05.689Z,101635.50
2019-03-26T09:44:31.579Z,101635.00
2019-03-26T09:46:57.685Z,101636.20
2019-03-26T09:49:23.675Z,101637.41
2019-03-26T09:51:49.515Z,101635.05
2019-03-26T09:54:15.552Z,101640.63
2019-03-26T09:56:41.383Z,101637.41
2019-03-26T09:59:07.240Z,101642.07
2019-03-26T10:01:33.295Z,101636.67
2019-03-26T10:03:59.329Z,101635.70
2019-03-26T10:06:25.169Z,101638.25
2019-03-26T10:08:52.558Z,101638.52
2019-03-26T10:11:18.920Z,101638.27
2019-03-26T10:13:44.748Z,101642.39
2019-03-26T10:16:12.040Z,101645.12
2019-03-26T10:18:37.899Z,101647.50
2019-03-26T10:21:03.768Z,101651.52
2019-03-26T10:23:29.741Z,101650.81
2019-03-26T10:25:55.689Z,101651.52
2019-03-26T10:28:21.601Z,101653.56
2019-03-26T10:30:47.662Z,101656.43
2019-03-26T10:33:13.758Z,101657.09
2019-03-26T10:35:39.727Z,101611.96
2019-03-26T10:38:05.959Z,101657.64
2019-03-26T10:40:32.727Z,101652.29
2019-03-26T10:42:59.000Z,101654.83
2019-03-26T10:45:25.052Z,101653.84
2019-03-26T10:47:50.913Z,101656.32
2019-03-26T10:50:16.778Z,101653.02
2019-03-26T10:52:42.753Z,101658.47
2019-03-26T10:55:08.618Z,101657.34
2019-03-26T10:57:34.602Z,101655.31
2019-03-26T11:00:00.770Z,101657.22
2019-03-26T11:02:26.669Z,101660.08
2019-03-26T11:04:52.638Z,101657.76
2019-03-26T11:07:18.824Z,101658.45
2019-03-26T11:09:44.692Z,101651.51
2019-03-26T11:12:10.526Z,101659.17
2019-03-26T11:14:36.617Z,101654.59
2019-03-26T11:17:02.609Z,101605.91
2019-03-26T11:19:28.475Z,101665.05
2019-03-26T11:21:54.463Z,101658.16
2019-03-26T11:24:20.335Z,101664.48
2019-03-26T11:26:46.282Z,101664.70
2019-03-26T11:29:12.290Z,101664.44
2019-03-26T11:31:38.247Z,101664.13
2019-03-26T11:34:04.217Z,101669.41
2019-03-26T11:36:30.426Z,101651.20
2019-03-26T11:38:56.284Z,101672.36
2019-03-26T11:41:22.229Z,101671.88
2019-03-26T11:43:48.219Z,101661.39
2019-03-26T11:46:14.182Z,101672.16
2019-03-26T11:48:40.060Z,101670.43
2019-03-26T11:51:06.092Z,101668.00
2019-03-26T11:53:31.954Z,101656.39
2019-03-26T11:55:57.940Z,101659.27
2019-03-26T11:58:30.504Z,101665.00
2019-03-26T12:00:51.787Z,101661.97
2019-03-26T12:03:17.807Z,101654.60
2019-03-26T12:05:43.830Z,101657.41
2019-03-26T12:08:09.720Z,101648.23
2019-03-26T12:10:35.583Z,101654.15
2019-03-26T12:13:01.640Z,101650.16
2019-03-26T12:15:27.600Z,101650.36
2019-03-26T12:17:53.493Z,101651.56
2019-03-26T12:20:19.930Z,101642.55
2019-03-26T12:22:47.697Z,101650.50
2019-03-26T12:25:13.755Z,101645.31
2019-03-26T12:27:39.805Z,101642.62
2019-03-26T12:30:07.162Z,101637.73
2019-03-26T12:32:33.093Z,101645.48
2019-03-26T12:34:59.348Z,101632.73
2019-03-26T12:37:25.228Z,101636.59
2019-03-26T12:39:59.254Z,101638.90
2019-03-26T12:42:18.853Z,101639.45
2019-03-26T12:44:44.685Z,101632.23
2019-03-26T12:47:10.549Z,101642.19
2019-03-26T12:49:36.756Z,101635.63
2019-03-26T12:52:02.705Z,101642.59
2019-03-26T12:54:28.538Z,101646.69
2019-03-26T12:56:54.617Z,101642.30
2019-03-26T12:59:20.584Z,101648.08
2019-03-26T13:01:46.577Z,101642.82
2019-03-26T13:04:15.447Z,101648.60
2019-03-26T13:06:40.400Z,101646.20
2019-03-26T13:09:07.106Z,101642.59
2019-03-26T13:11:33.160Z,101642.01
2019-03-26T13:13:58.982Z,101641.33
2019-03-26T13:16:24.945Z,101642.85
2019-03-26T13:18:51.087Z,101638.23
2019-03-26T13:21:17.050Z,101638.34
2019-03-26T13:23:43.037Z,101639.28
2019-03-26T13:26:09.105Z,101633.89
2019-03-26T13:28:34.944Z,101636.19
2019-03-26T13:31:00.786Z,101632.69
2019-03-26T13:33:27.089Z,101633.14
2019-03-26T13:35:52.965Z,101634.98
2019-03-26T13:38:18.829Z,101634.53
2019-03-26T13:40:45.993Z,101641.06
2019-03-26T13:43:11.873Z,101640.13
2019-03-26T13:45:37.821Z,101641.06
2019-03-26T13:48:03.869Z,101637.59
2019-03-26T13:50:29.737Z,101638.92
2019-03-26T13:52:55.746Z,101632.33
2019-03-26T13:55:21.773Z,101642.59
2019-03-26T13:57:47.720Z,101637.88
2019-03-26T14:00:13.997Z,101643.45
2019-03-26T14:02:40.066Z,101644.71
2019-03-26T14:05:07.840Z,101642.12
2019-03-26T14:07:33.719Z,101639.50
2019-03-26T14:09:59.692Z,101649.45
2019-03-26T14:12:25.648Z,101649.48
2019-03-26T14:14:53.921Z,101645.91
2019-03-26T14:17:19.949Z,101641.22
2019-03-26T14:19:45.964Z,101638.86
2019-03-26T14:22:11.949Z,101643.59
2019-03-26T14:24:38.000Z,101646.87
2019-03-26T14:27:03.936Z,101642.22
2019-03-26T14:29:29.809Z,101637.01
2019-03-26T14:31:55.805Z,101599.06
2019-03-26T14:34:21.826Z,101637.91
2019-03-26T14:36:47.680Z,101630.56
2019-03-26T14:39:13.643Z,101634.09
2019-03-26T14:41:39.643Z,101626.91
2019-03-26T14:44:05.593Z,101637.60
2019-03-26T14:46:31.548Z,101629.85
2019-03-26T14:48:57.417Z,101631.02
2019-03-26T14:51:23.403Z,101635.27
2019-03-26T14:53:49.452Z,101642.93
2019-03-26T14:56:15.351Z,101637.09
2019-03-26T14:58:41.221Z,101643.30
2019-03-26T15:01:07.360Z,101635.80
2019-03-26T15:03:33.234Z,101638.36
2019-03-26T15:05:59.230Z,101641.33
2019-03-26T15:08:25.316Z,101636.72
2019-03-26T15:10:52.339Z,101635.70
2019-03-26T15:13:18.253Z,101640.36
2019-03-26T15:15:44.172Z,101640.46
2019-03-26T15:18:10.139Z,101641.01
2019-03-26T15:20:36.146Z,101645.03
2019-03-26T15:23:02.287Z,101650.05
2019-03-26T15:25:28.158Z,101654.72
2019-03-26T15:27:54.034Z,101651.02
2019-03-26T15:30:20.191Z,101647.64
2019-03-26T15:32:46.268Z,101649.50
2019-03-26T15:35:12.277Z,101647.13
2019-03-26T15:37:38.417Z,101640.78
2019-03-26T15:40:06.087Z,101657.75
2019-03-26T15:42:32.010Z,101651.80
2019-03-26T15:44:58.114Z,101661.80
2019-03-26T15:47:24.068Z,101668.55
2019-03-26T15:49:50.351Z,101672.26
2019-03-26T15:52:17.032Z,101666.34
2019-03-26T15:54:42.981Z,101674.09
2019-03-26T15:57:08.896Z,101667.42
2019-03-26T15:59:34.809Z,101674.37
2019-03-26T16:02:00.683Z,101672.81
2019-03-26T16:04:26.676Z,101675.70
2019-03-26T16:06:52.706Z,101669.36
2019-03-26T16:09:18.559Z,101634.04
2019-03-26T16:11:44.702Z,101668.13
2019-03-26T16:14:10.610Z,101672.77
2019-03-26T16:16:36.468Z,101673.87
2019-03-26T16:19:02.570Z,101671.84
2019-03-26T16:21:28.741Z,101671.52
2019-03-26T16:23:54.601Z,101672.09
2019-03-26T16:26:20.807Z,101675.73
2019-03-26T16:28:46.870Z,101682.95
2019-03-26T16:31:12.718Z,101677.36
2019-03-26T16:33:38.745Z,101675.30
2019-03-26T16:36:04.942Z,101683.33
2019-03-26T16:38:30.878Z,101678.17
2019-03-26T16:40:56.770Z,101681.86
2019-03-26T16:43:22.922Z,101676.23
2019-03-26T16:45:48.900Z,101674.98
2019-03-26T16:48:14.800Z,101667.66
2019-03-26T16:50:40.924Z,101669.48
2019-03-26T16:53:07.165Z,101671.36
2019-03-26T16:55:33.194Z,101675.01
2019-03-26T16:58:01.963Z,101675.54
2019-03-26T17:00:28.850Z,101675.69
2019-03-26T17:02:54.698Z,101676.28
2019-03-26T17:05:26.688Z,101671.59
2019-03-26T17:07:52.557Z,101674.28
2019-03-26T17:10:18.515Z,101671.73
2019-03-26T17:12:44.948Z,101673.11
2019-03-26T17:15:11.046Z,101677.09
2019-03-26T17:17:36.908Z,101683.37
2019-03-26T17:20:04.251Z,101689.61
2019-03-26T17:22:30.113Z,101687.52
2019-03-26T17:24:55.978Z,101686.25
2019-03-26T17:27:22.059Z,101685.02
2019-03-26T17:29:47.940Z,101685.92
2019-03-26T17:32:13.835Z,101681.11
2019-03-26T17:34:39.819Z,101685.58
2019-03-26T17:37:05.739Z,101688.34
2019-03-26T17:39:31.823Z,101687.10
2019-03-26T17:41:57.928Z,101692.45
2019-03-26T17:44:23.782Z,101696.05
2019-03-26T17:46:49.683Z,101695.28
2019-03-26T17:49:15.579Z,101700.70
2019-03-26T17:51:41.457Z,101708.30
2019-03-26T17:54:07.325Z,101707.56
2019-03-26T17:56:33.334Z,101715.07
2019-03-26T17:58:59.232Z,101714.66
2019-03-26T18:01:25.207Z,101715.97
2019-03-26T18:03:51.503Z,101716.88
2019-03-26T18:06:17.457Z,101714.70
2019-03-26T18:08:43.340Z,101710.32
2019-03-26T18:11:09.473Z,101707.73
2019-03-26T18:13:35.411Z,101706.92
2019-03-26T18:16:01.403Z,101710.48
2019-03-26T18:18:27.337Z,101706.58
2019-03-26T18:20:53.350Z,101707.95
2019-03-26T18:23:19.180Z,101708.45
2019-03-26T18:25:45.114Z,101710.69
2019-03-26T18:28:10.975Z,101705.03
2019-03-26T18:30:36.963Z,101707.27
2019-03-26T18:33:03.119Z,101705.56
2019-03-26T18:35:30.196Z,101708.64
2019-03-26T18:37:56.075Z,101705.20
2019-03-26T18:40:25.003Z,101699.50
2019-03-26T18:42:50.933Z,101702.64
2019-03-26T18:45:16.775Z,101700.45
2019-03-26T18:47:43.277Z,101704.43
2019-03-26T18:50:09.969Z,101700.95
2019-03-26T18:52:35.818Z,101706.72
2019-03-26T18:55:02.385Z,101703.23
2019-03-26T18:57:28.243Z,101701.05
2019-03-26T18:59:54.096Z,101701.52
2019-03-26T19:02:20.066Z,101698.50
2019-03-26T19:04:46.048Z,101693.70
2019-03-26T19:07:12.056Z,101696.36
2019-03-26T19:09:38.079Z,101695.58
2019-03-26T19:12:03.958Z,101688.60
2019-03-26T19:14:29.860Z,101696.52
2019-03-26T19:16:55.788Z,101693.89
2019-03-26T19:19:21.666Z,101693.52
2019-03-26T19:21:47.572Z,101695.29
2019-03-26T19:24:13.599Z,101698.84
2019-03-26T19:26:39.599Z,101697.55
2019-03-26T19:29:05.559Z,101697.98
2019-03-26T19:31:31.547Z,101698.90
2019-03-26T19:33:57.422Z,101691.02
2019-03-26T19:36:23.281Z,101688.84
2019-03-26T19:38:49.370Z,101683.58
2019-03-26T19:41:15.291Z,101685.33
2019-03-26T19:43:41.368Z,101679.22
2019-03-26T19:46:07.516Z,101686.23
2019-03-26T19:48:33.690Z,101685.83
2019-03-26T19:50:59.533Z,101679.73
2019-03-26T19:53:25.588Z,101676.69
2019-03-26T19:55:51.444Z,101681.94
2019-03-26T19:58:17.430Z,101686.36
2019-03-26T20:00:43.573Z,101689.44
2019-03-26T20:03:09.434Z,101689.04
2019-03-26T20:05:35.689Z,101688.59
2019-03-26T20:08:01.926Z,101697.77
2019-03-26T20:10:27.871Z,101696.45
2019-03-26T20:12:53.725Z,101695.59
2019-03-26T20:15:20.096Z,101695.59
2019-03-26T20:17:45.952Z,101689.05
2019-03-26T20:20:12.398Z,101686.44
2019-03-26T20:22:38.521Z,101684.67
2019-03-26T20:25:04.685Z,101683.83
2019-03-26T20:27:30.652Z,101690.42
2019-03-26T20:29:56.712Z,101678.62
2019-03-26T20:32:22.587Z,101679.03
2019-03-26T20:34:48.564Z,101675.98
2019-03-26T20:37:14.659Z,101679.93
2019-03-26T20:39:40.496Z,101676.88
2019-03-26T20:42:08.285Z,101686.55
2019-03-26T20:44:34.148Z,101686.08
2019-03-26T20:47:00.241Z,101680.41
2019-03-26T20:49:26.182Z,101680.42
2019-03-26T20:51:52.271Z,101676.08
2019-03-26T20:54:19.025Z,101673.47
2019-03-26T20:56:45.053Z,101672.60
2019-03-26T20:59:11.199Z,101676.56
2019-03-26T21:01:37.175Z,101672.62
2019-03-26T21:04:03.155Z,101669.52
2019-03-26T21:06:29.203Z,101669.53
2019-03-26T21:08:55.044Z,101662.98
2019-03-26T21:11:20.928Z,101666.50
2019-03-26T21:13:50.968Z,101662.57
2019-03-26T21:16:14.680Z,101657.76
2019-03-26T21:18:40.544Z,101656.92
2019-03-26T21:21:06.564Z,101667.44
2019-03-26T21:23:32.711Z,101666.55
2019-03-26T21:25:58.691Z,101669.59
2019-03-26T21:28:24.840Z,101656.92
2019-03-26T21:30:50.811Z,101656.92
2019-03-26T21:33:16.761Z,101659.98
2019-03-26T21:35:42.900Z,101670.50
2019-03-26T21:38:08.753Z,101674.02
2019-03-26T21:40:35.774Z,101679.28
2019-03-26T21:43:01.936Z,101629.98
2019-03-26T21:45:31.516Z,101677.50
2019-03-26T21:47:57.508Z,101677.09
2019-03-26T21:50:23.540Z,101672.26
2019-03-26T21:52:49.520Z,101667.47
2019-03-26T21:55:15.404Z,101668.31
2019-03-26T21:57:41.478Z,101664.37
2019-03-26T22:00:07.886Z,101656.05
2019-03-26T22:02:33.761Z,101663.52
2019-03-26T22:04:59.777Z,101665.25
2019-03-26T22:07:25.778Z,101658.26
2019-03-26T22:09:51.823Z,101669.62
2019-03-26T22:12:20.754Z,101670.09
2019-03-26T22:14:45.555Z,101660.87
2019-03-26T22:17:11.405Z,101659.98
2019-03-26T22:19:37.552Z,101653.84
2019-03-26T22:22:03.405Z,101658.70
2019-03-26T22:24:29.406Z,101659.61
2019-03-26T22:26:55.551Z,101660.46
2019-03-26T22:29:21.511Z,101656.98
2019-03-26T22:31:47.341Z,101658.70
2019-03-26T22:34:13.751Z,101656.52
2019-03-26T22:36:39.613Z,101657.40
2019-03-26T22:39:05.699Z,101650.39
2019-03-26T22:41:31.861Z,101644.23
2019-03-26T22:43:57.973Z,101642.91
2019-03-26T22:46:23.992Z,101639.41
2019-03-26T22:48:50.261Z,101632.41
2019-03-26T22:51:16.136Z,101627.16
2019-03-26T22:53:42.081Z,101627.17
2019-03-26T22:56:08.107Z,101616.66
2019-03-26T22:58:34.022Z,101615.36
2019-03-26T23:01:00.102Z,101611.42
2019-03-26T23:03:26.412Z,101617.57
2019-03-26T23:05:52.541Z,101613.63
2019-03-26T23:08:18.402Z,101622.38
2019-03-26T23:10:44.437Z,101617.57
2019-03-26T23:13:10.431Z,101612.31
2019-03-26T23:15:36.280Z,101607.06
2019-03-26T23:18:02.541Z,101607.48
2019-03-26T23:20:28.543Z,101609.70
2019-03-26T23:22:55.301Z,101605.75
2019-03-26T23:25:21.358Z,101602.66
2019-03-26T23:27:47.215Z,101608.80
2019-03-26T23:30:13.442Z,101602.66
2019-03-26T23:32:39.457Z,101601.31
2019-03-26T23:35:05.492Z,101596.03
2019-03-26T23:37:31.370Z,101592.54
2019-03-26T23:39:57.306Z,101591.22
2019-03-26T23:42:23.186Z,101593.85
2019-03-26T23:44:58.326Z,101586.81
2019-03-26T23:47:17.449Z,101598.63
2019-03-26T23:49:43.365Z,101596.00
2019-03-26T23:52:09.258Z,101593.36
2019-03-26T23:54:35.220Z,101597.75
2019-03-26T23:57:01.190Z,101603.84
2019-03-26T23:59:27.156Z,101603.01
